Time;durP1;ratioP1;P1;durP2;ratioP2;P2;SDS_P1;SDS_P2;PMS_P1;PMS_P2;Temp;Humidity;BMP_temperature;BMP_pressure;BME280_temperature;BME280_humidity;BME280_pressure;Samples;Min_cycle;Max_cycle;Signal;HPM_P1;HPM_P2
2021/06/23 00:00:42;;;;;;;5.30;1.92;;;;;;;13.22;85.36;90875.50;4977845;28;20022;-84
2021/06/23 00:03:08;;;;;;;4.28;2.33;;;;;;;13.14;85.93;90872.75;4977952;28;20087;-86
2021/06/23 00:05:36;;;;;;;2.20;1.38;;;;;;;13.14;85.88;90869.34;4978186;28;20027;-86
2021/06/23 00:08:04;;;;;;;3.47;2.10;;;;;;;13.09;85.90;90862.53;4994368;28;20540;-85
2021/06/23 00:10:31;;;;;;;5.63;2.30;;;;;;;13.08;86.44;90870.75;5011441;28;20022;-85
2021/06/23 00:13:07;;;;;;;6.05;1.90;;;;;;;13.11;86.01;90876.06;4978017;28;20100;-85
2021/06/23 00:15:45;;;;;;;5.93;2.22;;;;;;;13.09;86.33;90877.50;4993574;28;20112;-84
2021/06/23 00:18:16;;;;;;;4.38;1.98;;;;;;;13.18;85.51;90887.75;4956462;28;20022;-84
2021/06/23 00:20:43;;;;;;;2.53;1.88;;;;;;;13.15;85.90;90884.72;4959291;28;20105;-84
2021/06/23 00:23:10;;;;;;;3.72;1.73;;;;;;;13.16;85.44;90885.47;4958590;28;20487;-85
2021/06/23 00:25:37;;;;;;;3.85;2.00;;;;;;;13.12;85.56;90879.41;4958626;28;20560;-85
2021/06/23 00:28:05;;;;;;;3.42;2.20;;;;;;;13.11;85.90;90883.91;4974759;28;20403;-85
2021/06/23 00:30:36;;;;;;;5.22;2.13;;;;;;;13.08;85.70;90873.38;4993460;28;20041;-85
2021/06/23 00:33:18;;;;;;;3.47;2.10;;;;;;;13.15;85.93;90869.03;5011164;28;20045;-85
2021/06/23 00:35:47;;;;;;;8.70;2.03;;;;;;;13.06;86.27;90875.56;4978659;28;20026;-85
2021/06/23 00:38:13;;;;;;;3.95;2.00;;;;;;;13.09;86.36;90890.56;4974492;28;20383;-85
2021/06/23 00:40:41;;;;;;;5.50;2.00;;;;;;;13.02;86.13;90869.50;4973988;28;20506;-84
2021/06/23 00:43:07;;;;;;;4.53;2.28;;;;;;;13.08;86.15;90862.91;4958435;28;20026;-85
2021/06/23 00:45:34;;;;;;;4.18;2.00;;;;;;;13.07;86.18;90863.97;4958388;28;20030;-85
2021/06/23 00:48:00;;;;;;;7.82;2.67;;;;;;;12.95;86.60;90840.59;4943474;28;20032;-85
2021/06/23 00:50:27;;;;;;;7.50;2.40;;;;;;;13.10;86.49;90850.22;4945452;28;20035;-85
2021/06/23 00:52:55;;;;;;;8.13;2.38;;;;;;;13.07;86.31;90845.66;4967321;28;20025;-85
2021/06/23 00:55:22;;;;;;;4.22;2.20;;;;;;;13.05;86.36;90846.03;4980994;28;20037;-84
2021/06/23 00:57:51;;;;;;;4.05;2.35;;;;;;;13.04;86.53;90841.13;4964825;28;20116;-85
2021/06/23 01:00:23;;;;;;;8.52;2.78;;;;;;;12.97;86.64;90835.75;4964964;28;20062;-85
2021/06/23 01:02:53;;;;;;;4.15;2.47;;;;;;;13.02;86.27;90840.72;4981603;28;20037;-85
2021/06/23 01:05:20;;;;;;;3.88;2.60;;;;;;;13.03;86.51;90844.84;4981672;28;20022;-85
2021/06/23 01:07:54;;;;;;;6.43;2.60;;;;;;;13.03;86.02;90837.75;4968224;28;20027;-84
2021/06/23 01:10:29;;;;;;;4.07;2.30;;;;;;;12.97;85.90;90828.69;4962232;28;20057;-85
2021/06/23 01:13:33;;;;;;;4.35;2.85;;;;;;;13.01;86.37;90820.91;4957959;28;20039;-86
2021/06/23 01:16:03;;;;;;;4.45;2.80;;;;;;;12.94;86.42;90812.94;4976946;28;20046;-85
2021/06/23 01:18:29;;;;;;;4.10;2.53;;;;;;;12.87;87.03;90824.00;4948456;28;20520;-85
2021/06/23 01:20:56;;;;;;;5.88;2.97;;;;;;;12.75;86.90;90817.03;4946639;28;20038;-88
2021/06/23 01:23:29;;;;;;;5.75;2.60;;;;;;;12.89;86.42;90824.41;4962709;28;20023;-85
2021/06/23 01:25:56;;;;;;;4.77;2.83;;;;;;;12.95;86.22;90832.75;4947826;28;20022;-86
2021/06/23 01:28:34;;;;;;;4.47;2.70;;;;;;;12.89;86.46;90840.09;4977726;28;20271;-87
2021/06/23 01:31:10;;;;;;;4.35;2.55;;;;;;;12.86;86.77;90846.00;5002916;28;20033;-86
2021/06/23 01:33:43;;;;;;;5.82;2.55;;;;;;;12.92;86.77;90845.38;4986702;28;20022;-86
2021/06/23 01:36:16;;;;;;;6.00;4.07;;;;;;;12.95;85.32;90853.66;4969976;28;20026;-86
2021/06/23 01:38:51;;;;;;;6.97;3.33;;;;;;;12.87;86.00;90853.53;4986332;28;20429;-86
2021/06/23 01:41:24;;;;;;;4.80;3.85;;;;;;;12.87;86.49;90861.38;4986129;28;20052;-86
2021/06/23 01:43:50;;;;;;;5.00;3.38;;;;;;;13.04;85.79;90864.66;5002551;28;20395;-85
2021/06/23 01:46:18;;;;;;;5.65;3.35;;;;;;;13.08;85.57;90860.28;4986544;28;20053;-86
2021/06/23 01:48:44;;;;;;;5.47;3.03;;;;;;;12.96;86.58;90861.16;4998886;28;20052;-86
2021/06/23 01:51:13;;;;;;;4.40;2.67;;;;;;;12.92;86.74;90862.94;4958400;28;20083;-86
2021/06/23 01:53:51;;;;;;;5.30;2.55;;;;;;;12.88;87.08;90857.63;4986437;28;20022;-86
2021/06/23 01:56:22;;;;;;;4.88;2.80;;;;;;;12.84;87.43;90856.06;4969339;28;20407;-86
2021/06/23 01:58:54;;;;;;;4.97;2.60;;;;;;;12.82;87.33;90847.78;4993706;28;20031;-85
2021/06/23 02:01:22;;;;;;;4.50;2.47;;;;;;;12.82;87.37;90843.31;4997946;28;20030;-85
2021/06/23 02:03:56;;;;;;;6.13;2.60;;;;;;;12.76;87.73;90842.09;5016971;28;20017;-85
2021/06/23 02:06:42;;;;;;;3.80;2.75;;;;;;;12.74;87.50;90849.50;5021593;28;20026;-86
2021/06/23 02:09:29;;;;;;;4.72;2.53;;;;;;;12.76;87.58;90847.31;4995437;28;20036;-85
2021/06/23 02:12:26;;;;;;;3.90;2.47;;;;;;;12.79;87.45;90851.88;5013472;28;20428;-85
2021/06/23 02:15:00;;;;;;;5.70;2.65;;;;;;;12.81;87.37;90854.88;5040918;23;20204;-85
2021/06/23 02:17:36;;;;;;;4.10;2.80;;;;;;;12.82;87.02;90851.16;4980662;28;20026;-86
2021/06/23 02:20:16;;;;;;;4.32;2.50;;;;;;;12.82;87.35;90845.19;4964384;28;20038;-85
2021/06/23 02:22:52;;;;;;;3.80;2.83;;;;;;;12.82;87.06;90835.47;4965899;28;20026;-85
2021/06/23 02:25:23;;;;;;;4.85;2.70;;;;;;;12.81;86.82;90830.59;4976170;28;20023;-85
2021/06/23 02:27:50;;;;;;;4.60;2.40;;;;;;;12.82;87.43;90837.31;4966750;28;20113;-86
2021/06/23 02:30:17;;;;;;;3.08;2.35;;;;;;;12.82;87.21;90838.09;4996289;28;20037;-85
2021/06/23 02:32:43;;;;;;;3.92;2.20;;;;;;;12.75;86.74;90837.19;4980549;28;20026;-85
2021/06/23 02:35:12;;;;;;;4.07;2.05;;;;;;;12.92;85.86;90834.19;4981648;28;20026;-86
2021/06/23 02:37:39;;;;;;;5.13;2.28;;;;;;;12.81;85.95;90833.97;4982228;28;20054;-86
2021/06/23 02:40:07;;;;;;;8.23;2.15;;;;;;;12.63;86.51;90830.22;4980906;28;20022;-85
2021/06/23 02:42:33;;;;;;;2.38;2.05;;;;;;;12.55;86.83;90823.34;4964573;28;20027;-85
2021/06/23 02:44:59;;;;;;;4.90;2.47;;;;;;;12.49;86.95;90820.22;4981208;28;20030;-85
2021/06/23 02:47:28;;;;;;;2.40;1.75;;;;;;;12.53;86.98;90822.91;4980438;28;20053;-85
2021/06/23 02:49:55;;;;;;;4.55;2.25;;;;;;;12.51;86.88;90812.81;4976267;28;20022;-83
2021/06/23 02:52:22;;;;;;;4.53;2.13;;;;;;;12.44;86.99;90808.19;4961684;28;20035;-85
2021/06/23 02:54:51;;;;;;;2.47;2.08;;;;;;;12.35;86.82;90807.59;4960266;28;20031;-85
2021/06/23 02:57:28;;;;;;;7.90;2.17;;;;;;;12.33;86.44;90807.22;4945284;28;20034;-85
2021/06/23 03:00:09;;;;;;;6.72;2.20;;;;;;;12.29;86.34;90805.59;4974190;28;20112;-84
2021/06/23 03:02:39;;;;;;;3.13;2.30;;;;;;;12.15;86.45;90809.41;4997135;28;20054;-85
2021/06/23 03:05:07;;;;;;;4.55;1.95;;;;;;;12.10;86.29;90806.31;4980565;28;20018;-85
2021/06/23 03:07:33;;;;;;;6.82;2.00;;;;;;;12.08;86.21;90813.72;4964890;28;20026;-85
2021/06/23 03:10:17;;;;;;;4.13;1.88;;;;;;;12.03;86.09;90811.38;4997155;28;20036;-85
2021/06/23 03:12:50;;;;;;;2.80;2.20;;;;;;;12.10;85.74;90812.28;4965437;28;20022;-84
2021/06/23 03:15:24;;;;;;;4.30;1.80;;;;;;;11.91;85.84;90810.38;4998029;28;20022;-86
2021/06/23 03:18:00;;;;;;;3.78;2.05;;;;;;;11.93;85.24;90812.63;4997719;28;20027;-85
2021/06/23 03:20:29;;;;;;;2.97;2.47;;;;;;;11.80;85.75;90813.78;4949032;28;20033;-87
2021/06/23 03:22:55;;;;;;;3.42;1.98;;;;;;;11.62;85.60;90815.97;4964582;28;20057;-84
2021/06/23 03:25:22;;;;;;;4.88;1.85;;;;;;;11.53;85.99;90821.34;4980258;28;20049;-85
2021/06/23 03:27:53;;;;;;;4.13;2.00;;;;;;;11.51;86.21;90825.38;4996255;28;20030;-85
2021/06/23 03:30:21;;;;;;;5.07;2.38;;;;;;;11.44;86.87;90818.13;4980650;28;20022;-84
2021/06/23 03:32:58;;;;;;;2.70;2.00;;;;;;;11.39;86.98;90824.38;4981686;28;20142;-86
2021/06/23 03:35:33;;;;;;;4.25;2.30;;;;;;;11.45;85.88;90827.50;4981567;28;20151;-85
2021/06/23 03:38:01;;;;;;;4.05;2.33;;;;;;;11.45;86.35;90836.09;4946511;28;20069;-86
2021/06/23 03:40:28;;;;;;;7.07;2.15;;;;;;;11.37;86.87;90826.53;4946056;28;20034;-86
2021/06/23 03:42:54;;;;;;;3.45;2.33;;;;;;;11.37;85.68;90829.16;4998342;28;20034;-85
2021/06/23 03:45:21;;;;;;;7.00;2.50;;;;;;;11.19;86.68;90833.91;4950328;28;20026;-86
2021/06/23 03:47:47;;;;;;;4.70;2.00;;;;;;;11.15;86.30;90832.31;4981822;28;20034;-84
2021/06/23 03:50:14;;;;;;;3.92;2.13;;;;;;;11.14;86.22;90833.41;4950294;28;20026;-84
2021/06/23 03:52:42;;;;;;;9.32;2.42;;;;;;;11.04;86.25;90842.44;4977814;28;20023;-86
2021/06/23 03:55:09;;;;;;;2.30;1.77;;;;;;;10.98;86.39;90844.53;4961494;28;20018;-84
2021/06/23 03:57:36;;;;;;;3.00;1.85;;;;;;;11.03;86.31;90850.63;4977623;28;20485;-86
2021/06/23 04:00:03;;;;;;;5.85;1.92;;;;;;;11.10;86.61;90853.41;4977661;28;20022;-84
2021/06/23 04:02:33;;;;;;;2.78;1.88;;;;;;;11.09;86.57;90857.84;4978734;28;20038;-85
2021/06/23 04:05:07;;;;;;;3.42;1.80;;;;;;;11.15;86.50;90866.97;4961697;28;20023;-85
2021/06/23 04:07:37;;;;;;;3.60;2.25;;;;;;;11.18;86.15;90871.53;4960933;28;20516;-85
2021/06/23 04:10:06;;;;;;;8.07;2.47;;;;;;;11.01;86.86;90880.38;4945493;28;20034;-84
2021/06/23 04:12:33;;;;;;;2.92;2.33;;;;;;;10.96;86.77;90888.44;4947783;28;20027;-85
2021/06/23 04:15:07;;;;;;;3.75;1.98;;;;;;;10.98;86.64;90895.91;4969739;28;20038;-86
2021/06/23 04:17:42;;;;;;;3.05;2.05;;;;;;;11.09;86.23;90891.75;4994527;28;20261;-84
2021/06/23 04:20:13;;;;;;;3.03;2.03;;;;;;;11.09;86.16;90896.22;4950640;28;20042;-83
2021/06/23 04:22:40;;;;;;;7.22;2.60;;;;;;;11.06;86.63;90892.44;4978600;28;20046;-86
2021/06/23 04:25:14;;;;;;;3.38;2.20;;;;;;;11.05;86.89;90895.38;5002109;28;20022;-87
2021/06/23 04:27:46;;;;;;;3.25;2.15;;;;;;;11.05;87.25;90890.16;4959320;28;20381;-85
2021/06/23 04:30:18;;;;;;;3.45;1.83;;;;;;;11.11;87.04;90904.47;4977902;28;20039;-84
2021/06/23 04:32:48;;;;;;;2.72;1.60;;;;;;;11.15;87.25;90898.25;4965912;28;20107;-85
2021/06/23 04:35:15;;;;;;;4.18;2.08;;;;;;;11.22;87.05;90913.34;4965905;28;20038;-85
2021/06/23 04:37:44;;;;;;;2.80;1.70;;;;;;;11.21;86.62;90904.78;4981379;28;20026;-84
2021/06/23 04:40:13;;;;;;;3.58;1.80;;;;;;;11.25;86.74;90910.84;4965714;28;20042;-85
2021/06/23 04:42:44;;;;;;;2.97;1.73;;;;;;;11.31;86.77;90913.19;4949233;28;20484;-85
2021/06/23 04:45:20;;;;;;;1.90;1.60;;;;;;;11.44;86.13;90915.44;4949830;28;20097;-85
2021/06/23 04:47:55;;;;;;;5.75;2.30;;;;;;;11.55;87.57;90917.56;4964964;28;20508;-85
2021/06/23 04:50:30;;;;;;;5.05;2.10;;;;;;;11.62;87.20;90917.75;4992654;28;20494;-85
2021/06/23 04:52:57;;;;;;;2.92;1.52;;;;;;;11.76;87.07;90919.97;4984975;28;20022;-85
2021/06/23 04:55:23;;;;;;;3.05;1.95;;;;;;;11.71;87.25;90915.78;4984572;28;20026;-85
2021/06/23 04:57:50;;;;;;;3.03;2.20;;;;;;;11.79;87.55;90912.25;4973770;28;20105;-85
2021/06/23 05:00:17;;;;;;;4.15;2.00;;;;;;;12.01;87.43;90910.19;4949101;28;20401;-86
2021/06/23 05:02:46;;;;;;;2.45;1.95;;;;;;;12.00;86.98;90906.06;4982545;28;20026;-85
2021/06/23 05:05:15;;;;;;;3.05;2.15;;;;;;;12.03;87.04;90905.41;4965457;28;20097;-84
2021/06/23 05:07:42;;;;;;;3.55;2.72;;;;;;;12.16;87.57;90914.69;4949409;28;20034;-85
2021/06/23 05:10:10;;;;;;;5.00;2.55;;;;;;;12.25;88.18;90904.81;4947753;28;20058;-84
2021/06/23 05:12:37;;;;;;;3.95;2.20;;;;;;;12.34;86.66;90902.03;4964951;28;20107;-86
2021/06/23 05:15:04;;;;;;;2.83;2.35;;;;;;;12.38;86.22;90900.25;4964513;28;20031;-83
2021/06/23 05:17:30;;;;;;;4.05;2.60;;;;;;;12.43;85.90;90908.59;4965097;28;20038;-86
2021/06/23 05:19:57;;;;;;;5.63;2.65;;;;;;;12.53;86.77;90904.69;4948614;28;20030;-85
2021/06/23 05:22:26;;;;;;;3.03;2.30;;;;;;;12.57;85.96;90902.16;4993173;28;20026;-85
2021/06/23 05:24:58;;;;;;;5.72;2.67;;;;;;;12.62;87.13;90904.53;4967717;28;20042;-85
2021/06/23 05:27:36;;;;;;;3.00;2.20;;;;;;;12.67;86.35;90906.88;4984344;28;20026;-85
2021/06/23 05:30:08;;;;;;;2.75;1.90;;;;;;;12.60;84.59;90901.50;4982871;28;20029;-85
2021/06/23 05:32:43;;;;;;;2.33;1.65;;;;;;;12.57;84.74;90895.06;5000294;28;20120;-85
2021/06/23 05:35:14;;;;;;;2.70;1.95;;;;;;;12.50;84.54;90889.69;4997371;28;20414;-84
2021/06/23 05:37:44;;;;;;;2.17;1.67;;;;;;;12.68;84.41;90893.47;4982312;28;20484;-85
2021/06/23 05:40:20;;;;;;;2.78;1.80;;;;;;;12.93;83.45;90893.22;4999069;28;20026;-86
2021/06/23 05:42:54;;;;;;;2.95;1.60;;;;;;;13.02;83.70;90891.19;4998752;28;20022;-85
2021/06/23 05:45:21;;;;;;;2.72;1.88;;;;;;;13.09;83.12;90890.56;4995111;28;20399;-85
2021/06/23 05:47:50;;;;;;;3.75;1.70;;;;;;;13.14;84.44;90898.13;4973797;28;20054;-85
2021/06/23 05:50:18;;;;;;;4.40;1.70;;;;;;;13.25;84.88;90899.16;4988114;28;20034;-85
2021/06/23 05:52:44;;;;;;;4.05;1.60;;;;;;;13.28;84.62;90898.44;4962613;28;20146;-85
2021/06/23 05:55:11;;;;;;;3.75;1.80;;;;;;;13.31;84.61;90908.22;4965487;28;20122;-85
2021/06/23 05:57:37;;;;;;;2.55;1.77;;;;;;;13.48;82.03;90903.69;4972809;28;20397;-85
2021/06/23 06:00:04;;;;;;;3.53;1.75;;;;;;;13.51;82.75;90908.25;4979829;28;20038;-86
2021/06/23 06:02:33;;;;;;;2.90;1.85;;;;;;;13.66;82.79;90907.41;4960372;28;20037;-85
2021/06/23 06:04:59;;;;;;;2.25;1.65;;;;;;;13.73;81.89;90918.00;4994338;28;20512;-86
2021/06/23 06:07:26;;;;;;;2.75;1.48;;;;;;;13.79;81.03;90927.09;4994402;28;20030;-85
2021/06/23 06:09:56;;;;;;;2.72;1.02;;;;;;;13.93;80.53;90921.34;4995555;28;20033;-85
2021/06/23 06:12:23;;;;;;;2.38;1.25;;;;;;;14.10;76.43;90928.03;4990739;28;20038;-85
2021/06/23 06:14:52;;;;;;;1.50;1.13;;;;;;;14.04;78.39;90932.78;4976186;28;20586;-86
2021/06/23 06:17:18;;;;;;;2.08;1.30;;;;;;;14.29;75.93;90935.06;4990939;28;20038;-85
2021/06/23 06:19:45;;;;;;;2.15;1.30;;;;;;;14.19;76.12;90933.03;4958388;28;20023;-85
2021/06/23 06:22:11;;;;;;;1.95;1.35;;;;;;;14.21;75.93;90936.06;4974437;28;20397;-85
2021/06/23 06:24:39;;;;;;;1.88;1.33;;;;;;;14.23;77.81;90939.06;4958198;28;20027;-85
2021/06/23 06:27:06;;;;;;;1.92;1.40;;;;;;;14.28;76.65;90939.56;4985229;28;20381;-85
2021/06/23 06:29:33;;;;;;;2.10;1.40;;;;;;;14.45;76.78;90934.94;4971434;28;20179;-85
2021/06/23 06:32:01;;;;;;;2.65;1.30;;;;;;;14.64;75.81;90934.91;4963721;28;20030;-84
2021/06/23 06:34:27;;;;;;;5.32;1.67;;;;;;;14.68;76.40;90933.09;4962128;28;20114;-84
2021/06/23 06:36:57;;;;;;;2.60;0.98;;;;;;;14.70;73.81;90927.47;4961742;28;20035;-85
2021/06/23 06:39:23;;;;;;;1.52;0.88;;;;;;;14.76;72.53;90929.44;4960940;28;20476;-85
2021/06/23 06:41:49;;;;;;;1.95;0.95;;;;;;;14.86;71.42;90937.84;4964018;28;20117;-83
2021/06/23 06:44:15;;;;;;;1.80;1.02;;;;;;;14.89;69.82;90926.66;4955108;28;20033;-85
2021/06/23 06:46:42;;;;;;;1.27;0.90;;;;;;;14.94;71.12;90929.72;4979062;28;20462;-84
2021/06/23 06:49:08;;;;;;;1.50;1.00;;;;;;;15.06;70.87;90939.25;4949827;28;20022;-85
2021/06/23 06:51:34;;;;;;;1.30;1.10;;;;;;;15.00;70.23;90933.56;4996864;28;20026;-85
2021/06/23 06:54:01;;;;;;;2.55;1.10;;;;;;;15.16;71.64;90941.28;4996554;28;20022;-86
2021/06/23 06:56:32;;;;;;;2.38;1.00;;;;;;;15.10;71.19;90942.69;4979537;28;20492;-85
2021/06/23 06:58:58;;;;;;;1.90;1.00;;;;;;;15.14;71.68;90938.25;4977631;28;20046;-84
2021/06/23 07:01:31;;;;;;;1.42;1.05;;;;;;;15.30;70.63;90941.47;4994995;28;20176;-86
2021/06/23 07:03:56;;;;;;;1.25;0.80;;;;;;;15.48;68.65;90940.94;4997465;28;20019;-85
2021/06/23 07:06:24;;;;;;;1.13;0.57;;;;;;;15.48;67.02;90941.69;4980171;28;20392;-86
2021/06/23 07:08:52;;;;;;;1.40;0.63;;;;;;;15.60;66.14;90938.06;4979771;28;20029;-84
2021/06/23 07:11:21;;;;;;;1.45;0.77;;;;;;;15.66;67.58;90938.53;4963752;28;20053;-84
2021/06/23 07:13:47;;;;;;;0.75;0.63;;;;;;;15.94;66.45;90938.09;4994689;28;20034;-85
2021/06/23 07:16:14;;;;;;;2.15;0.73;;;;;;;16.17;63.84;90943.97;4979148;28;20026;-86
2021/06/23 07:18:40;;;;;;;1.45;0.73;;;;;;;16.25;64.93;90940.28;4975970;28;20069;-85
2021/06/23 07:21:06;;;;;;;2.45;0.77;;;;;;;16.43;61.67;90950.97;4959556;28;20030;-85
2021/06/23 07:23:33;;;;;;;1.55;0.70;;;;;;;16.45;62.66;90947.97;4976291;28;20509;-85
2021/06/23 07:26:03;;;;;;;1.35;0.70;;;;;;;16.61;63.71;90945.88;4959978;28;20091;-85
2021/06/23 07:28:41;;;;;;;2.03;0.80;;;;;;;16.83;62.18;90940.78;4975270;28;20027;-85
2021/06/23 07:31:09;;;;;;;1.20;0.75;;;;;;;17.04;62.39;90933.03;4960207;28;20031;-86
2021/06/23 07:33:40;;;;;;;0.90;0.77;;;;;;;16.78;62.42;90933.22;4975767;28;20019;-87
2021/06/23 07:38:55;;;;;;;1.35;0.82;;;;;;;16.68;63.75;90940.66;4976922;28;20077;-85
2021/06/23 07:41:21;;;;;;;2.05;0.90;;;;;;;16.63;65.11;90943.63;4962359;28;20033;-86
2021/06/23 07:43:48;;;;;;;1.45;0.80;;;;;;;16.66;63.30;90948.16;4976440;28;20022;-89
2021/06/23 07:46:17;;;;;;;1.38;0.80;;;;;;;16.65;63.76;90957.16;4997619;28;20029;-88
2021/06/23 07:48:48;;;;;;;3.72;1.00;;;;;;;16.85;63.30;90951.69;4982244;28;20407;-85
2021/06/23 07:51:18;;;;;;;2.05;0.80;;;;;;;16.85;65.41;90944.56;4998733;28;20026;-85
2021/06/23 08:10:09;;;;;;;1.05;0.70;;;;;;;17.35;60.46;90952.00;4972713;28;20061;-86
2021/06/23 08:12:44;;;;;;;1.17;0.80;;;;;;;17.44;60.72;90947.19;4960085;28;20077;-86
2021/06/23 08:15:10;;;;;;;1.10;0.73;;;;;;;17.49;58.86;90948.69;5052143;23;20070;-85
2021/06/23 08:17:36;;;;;;;3.50;0.80;;;;;;;17.52;59.51;90947.97;4961747;28;20168;-85
2021/06/23 08:20:02;;;;;;;1.27;0.77;;;;;;;17.63;59.75;90954.81;4980071;28;20026;-85
2021/06/23 08:22:27;;;;;;;2.67;0.90;;;;;;;17.56;57.74;90952.16;4991978;28;20036;-86
2021/06/23 08:24:54;;;;;;;2.58;0.90;;;;;;;17.59;57.94;90954.03;5016554;28;20025;-84
2021/06/23 08:27:20;;;;;;;1.67;0.73;;;;;;;17.77;58.40;90956.00;5016715;28;20404;-86
2021/06/23 08:29:46;;;;;;;0.95;0.80;;;;;;;17.67;57.01;90954.84;4999163;28;20030;-84
2021/06/23 08:32:13;;;;;;;1.60;0.88;;;;;;;17.78;58.03;90941.72;4982463;28;20104;-85
2021/06/23 08:34:40;;;;;;;0.95;0.60;;;;;;;17.95;58.13;90943.66;5004066;28;20025;-83
2021/06/23 08:37:08;;;;;;;1.55;0.80;;;;;;;18.06;58.22;90944.47;4979222;28;20512;-86
2021/06/23 08:39:36;;;;;;;1.50;0.80;;;;;;;18.08;56.73;90939.53;4947377;28;20121;-85
2021/06/23 08:42:04;;;;;;;2.35;0.85;;;;;;;18.23;55.87;90947.50;4979960;28;20030;-86
2021/06/23 08:44:30;;;;;;;1.45;0.70;;;;;;;18.42;58.98;90946.41;4979773;28;20090;-85
2021/06/23 08:46:56;;;;;;;2.22;0.73;;;;;;;18.47;55.44;90946.03;4980227;28;20041;-85
2021/06/23 08:49:23;;;;;;;3.55;0.80;;;;;;;18.36;56.41;90943.38;4963371;28;20026;-86
2021/06/23 08:51:50;;;;;;;1.80;0.85;;;;;;;18.44;53.90;90936.97;4979466;28;20022;-86
2021/06/23 08:54:17;;;;;;;2.10;0.77;;;;;;;18.40;53.95;90936.22;4962814;28;20076;-83
2021/06/23 08:56:44;;;;;;;2.20;0.80;;;;;;;18.39;57.07;90935.47;4979475;28;20034;-86
2021/06/23 08:59:10;;;;;;;1.42;0.70;;;;;;;18.44;58.85;90938.88;4980125;28;20026;-85
2021/06/23 09:01:36;;;;;;;1.40;0.82;;;;;;;18.53;57.51;90940.00;4979035;28;20037;-85
2021/06/23 09:04:11;;;;;;;2.88;0.80;;;;;;;18.65;54.49;90936.25;4980661;28;20105;-85
2021/06/23 09:06:47;;;;;;;1.27;0.77;;;;;;;18.75;53.70;90942.69;4977273;28;20074;-84
2021/06/23 09:09:26;;;;;;;1.15;0.70;;;;;;;18.98;58.89;90940.44;4976174;28;20031;-86
2021/06/23 09:11:58;;;;;;;2.15;0.90;;;;;;;19.07;55.93;90932.09;5001870;28;20026;-85
2021/06/23 09:14:29;;;;;;;2.05;0.70;;;;;;;19.21;55.28;90932.09;4986411;28;20030;-85
2021/06/23 09:17:17;;;;;;;0.90;0.77;;;;;;;18.96;52.22;90934.00;4984902;28;20049;-85
2021/06/23 09:19:43;;;;;;;1.00;0.50;;;;;;;18.95;52.52;90933.25;4999652;28;20023;-85
2021/06/23 09:22:41;;;;;;;1.40;0.93;;;;;;;18.99;51.78;90936.66;4982835;28;20085;-85
2021/06/23 09:25:13;;;;;;;1.70;0.88;;;;;;;19.11;52.63;90935.50;4969292;28;20097;-86
2021/06/23 09:27:57;;;;;;;1.40;0.80;;;;;;;19.24;52.03;90927.94;4980107;28;20095;-86
2021/06/23 09:30:33;;;;;;;2.25;0.80;;;;;;;19.41;51.53;90927.16;4963590;28;20033;-85
2021/06/23 09:33:20;;;;;;;2.03;0.90;;;;;;;19.63;54.51;90932.41;4981448;28;20104;-85
2021/06/23 09:36:00;;;;;;;2.20;0.70;;;;;;;19.74;53.92;90922.53;4963964;28;20023;-86
2021/06/23 09:38:43;;;;;;;1.77;0.70;;;;;;;19.71;51.73;90931.22;4980980;28;20397;-86
2021/06/23 09:41:21;;;;;;;1.45;0.80;;;;;;;19.67;52.59;90925.22;4962745;28;20023;-84
2021/06/23 09:43:48;;;;;;;1.00;0.60;;;;;;;19.96;54.57;90918.66;4947144;28;20069;-86
2021/06/23 09:46:23;;;;;;;1.70;0.70;;;;;;;20.26;52.47;90922.69;4947852;28;20026;-87
2021/06/23 09:48:52;;;;;;;5.80;0.90;;;;;;;20.50;54.09;90913.09;4966890;28;20018;-86
2021/06/23 09:51:20;;;;;;;2.05;0.60;;;;;;;20.91;52.25;90915.06;5000046;28;20114;-86
2021/06/23 09:53:47;;;;;;;3.35;0.80;;;;;;;20.96;48.84;90910.09;4967565;28;20030;-85
2021/06/23 09:56:30;;;;;;;1.50;0.90;;;;;;;20.99;46.73;90921.81;4966216;28;20053;-85
2021/06/23 09:58:56;;;;;;;1.92;0.90;;;;;;;20.99;47.74;90917.28;4966576;28;20023;-84
2021/06/23 10:01:24;;;;;;;1.40;1.00;;;;;;;20.77;49.52;90911.38;4965664;28;20026;-85
2021/06/23 10:03:56;;;;;;;1.35;0.70;;;;;;;20.86;50.90;90918.88;4964127;28;20038;-85
2021/06/23 10:06:32;;;;;;;1.73;1.00;;;;;;;20.93;53.21;90912.78;4979798;28;20027;-86
2021/06/23 10:09:20;;;;;;;1.80;0.82;;;;;;;20.92;50.68;90919.97;4979136;28;20536;-85
2021/06/23 10:11:48;;;;;;;1.42;0.73;;;;;;;20.89;51.40;90918.09;5001746;28;20060;-86
2021/06/23 10:14:17;;;;;;;1.42;0.73;;;;;;;21.15;48.31;90921.28;5001654;28;20013;-85
2021/06/23 10:16:44;;;;;;;1.20;0.65;;;;;;;21.41;49.53;90915.41;5019643;28;20026;-86
2021/06/23 10:19:11;;;;;;;1.10;0.65;;;;;;;21.36;47.05;90925.66;4985129;28;20033;-84
2021/06/23 10:21:40;;;;;;;2.28;0.80;;;;;;;21.01;48.18;90920.25;5000566;28;20033;-86
2021/06/23 10:24:11;;;;;;;1.67;0.63;;;;;;;20.81;51.08;90926.47;5001919;28;20029;-86
2021/06/23 10:26:39;;;;;;;0.85;0.70;;;;;;;20.91;52.12;90923.75;5018556;28;20028;-86
2021/06/23 10:29:07;;;;;;;1.70;0.70;;;;;;;21.08;51.65;90932.69;4984576;28;20049;-85
2021/06/23 10:31:33;;;;;;;1.50;0.90;;;;;;;21.17;50.37;90927.72;4971938;28;20030;-86
2021/06/23 10:33:58;;;;;;;1.40;0.60;;;;;;;21.29;49.17;90926.44;4965399;28;20069;-86
2021/06/23 10:36:27;;;;;;;1.85;0.80;;;;;;;21.36;46.20;90937.00;4965447;28;20456;-86
2021/06/23 10:38:53;;;;;;;3.00;0.85;;;;;;;21.02;49.04;90931.59;4999285;28;20093;-86
2021/06/23 10:41:20;;;;;;;4.55;0.90;;;;;;;20.67;47.71;90928.13;4965759;28;20026;-86
2021/06/23 10:44:16;;;;;;;1.92;0.57;;;;;;;21.01;43.86;90936.16;4951192;28;20030;-86
2021/06/23 10:46:44;;;;;;;1.70;0.60;;;;;;;21.03;45.82;90932.38;4988279;28;20035;-85
2021/06/23 10:49:15;;;;;;;3.00;0.80;;;;;;;20.95;47.72;90929.78;4979422;28;20112;-84
2021/06/23 10:51:41;;;;;;;1.75;0.70;;;;;;;21.13;46.05;90932.28;4965808;28;20026;-86
2021/06/23 10:54:32;;;;;;;1.48;0.60;;;;;;;21.01;45.89;90930.09;4965458;28;20046;-86
2021/06/23 10:57:00;;;;;;;1.27;0.70;;;;;;;20.76;43.39;90920.47;4980007;28;20036;-86
2021/06/23 10:59:35;;;;;;;1.27;0.70;;;;;;;20.70;44.77;90910.69;4980905;28;20085;-85
2021/06/23 11:02:11;;;;;;;1.13;0.60;;;;;;;20.62;45.99;90904.69;4965238;28;20038;-86
2021/06/23 11:05:04;;;;;;;1.88;0.80;;;;;;;20.84;45.74;90910.56;4979326;28;20098;-85
2021/06/23 11:07:39;;;;;;;1.53;0.70;;;;;;;20.88;46.79;90911.28;4993743;28;20117;-84
2021/06/23 11:10:15;;;;;;;2.20;0.73;;;;;;;20.89;45.67;90899.56;4983159;28;20037;-85
2021/06/23 11:12:50;;;;;;;2.05;0.80;;;;;;;21.12;47.20;90893.66;5000119;28;20026;-85
2021/06/23 11:15:22;;;;;;;1.27;0.70;;;;;;;21.18;48.54;90901.97;4967102;28;20022;-84
2021/06/23 11:17:50;;;;;;;1.27;0.73;;;;;;;21.50;45.78;90901.66;4983018;28;20026;-84
2021/06/23 11:20:19;;;;;;;2.85;0.80;;;;;;;21.66;46.04;90903.75;4965925;28;20030;-86
2021/06/23 11:22:52;;;;;;;2.40;0.98;;;;;;;21.96;44.93;90903.03;5001072;28;20026;-85
2021/06/23 11:25:28;;;;;;;1.27;0.70;;;;;;;22.06;44.68;90893.44;4982616;28;20022;-85
2021/06/23 11:28:09;;;;;;;2.10;0.75;;;;;;;22.28;45.78;90896.56;4951546;28;20034;-86
2021/06/23 11:30:36;;;;;;;3.72;1.02;;;;;;;22.01;45.96;90896.50;4999907;28;20089;-86
2021/06/23 11:33:30;;;;;;;2.78;0.80;;;;;;;21.47;43.34;90908.50;4982050;28;20547;-85
2021/06/23 11:35:58;;;;;;;3.47;1.15;;;;;;;21.81;44.64;90910.41;4981974;28;20031;-86
2021/06/23 11:38:30;;;;;;;4.55;2.70;;;;;;;21.96;49.79;90914.38;4999763;28;20018;-86
2021/06/23 11:41:02;;;;;;;6.13;3.63;;;;;;;21.54;52.83;90912.22;4983310;28;20022;-85
2021/06/23 11:43:29;;;;;;;6.93;4.28;;;;;;;21.47;55.22;90908.50;4982782;28;20033;-86
2021/06/23 11:45:54;;;;;;;5.80;4.13;;;;;;;20.90;55.51;90916.22;4982873;28;20022;-85
2021/06/23 11:48:23;;;;;;;8.05;4.22;;;;;;;20.85;55.55;90917.38;4984561;28;20508;-83
2021/06/23 11:50:50;;;;;;;5.70;3.95;;;;;;;21.19;56.15;90909.50;4962416;28;20019;-85
2021/06/23 11:53:18;;;;;;;7.35;4.10;;;;;;;21.25;56.14;90912.50;4980777;28;20058;-86
2021/06/23 11:55:46;;;;;;;5.68;3.67;;;;;;;21.20;53.48;90903.06;4948320;28;20023;-86
2021/06/23 11:58:13;;;;;;;5.43;3.13;;;;;;;21.04;54.84;90912.69;4989305;28;20073;-86
2021/06/23 12:00:40;;;;;;;3.30;2.10;;;;;;;21.14;53.59;90903.91;5000028;28;20489;-84
2021/06/23 12:03:06;;;;;;;2.58;1.30;;;;;;;21.20;48.50;90904.94;4983232;28;20034;-87
2021/06/23 12:05:32;;;;;;;3.15;1.20;;;;;;;21.26;47.20;90898.09;4982114;28;20164;-86
2021/06/23 12:08:00;;;;;;;1.85;0.93;;;;;;;21.97;48.27;90907.16;4982728;28;20396;-87